TimeMST,TemperatureF,Dew PointF,Humidity,Sea Level PressureIn,VisibilityMPH,Wind Direction,Wind SpeedMPH,Gust SpeedMPH,PrecipitationIn,Events,Conditions,WindDirDegrees,DateUTC
12:09 AM,12.2,3.2,67,30.04,10.0,Calm,Calm,-,N/A,,Overcast,0,2012-12-09 07:09:00
12:53 AM,10.9,3.0,70,30.22,10.0,NE,10.4,-,N/A,,Overcast,50,2012-12-09 07:53:00
1:53 AM,10.0,3.9,76,30.24,4.0,North,8.1,-,0.00,Snow,Light Snow,360,2012-12-09 08:53:00
2:53 AM,8.1,1.9,76,30.26,7.0,North,3.5,-,0.00,Snow,Light Snow,360,2012-12-09 09:53:00
3:53 AM,3.9,-0.9,80,30.30,10.0,NNE,3.5,-,0.00,,Scattered Clouds,20,2012-12-09 10:53:00
4:53 AM,1.0,-2.9,83,30.35,10.0,ENE,4.6,-,N/A,,Clear,70,2012-12-09 11:53:00
5:53 AM,-4.0,-9.0,79,30.40,10.0,SSW,3.5,-,N/A,,Clear,210,2012-12-09 12:53:00
6:53 AM,-4.0,-8.0,83,30.43,10.0,Calm,Calm,-,N/A,,Overcast,0,2012-12-09 13:53:00
7:53 AM,1.0,-5.1,75,30.45,10.0,NW,3.5,-,N/A,,Overcast,310,2012-12-09 14:53:00
8:53 AM,7.0,3.0,84,30.44,10.0,Calm,Calm,-,N/A,,Clear,0,2012-12-09 15:53:00
9:53 AM,8.1,3.9,83,30.46,10.0,South,3.5,-,N/A,,Clear,190,2012-12-09 16:53:00
10:53 AM,10.9,5.0,77,30.45,10.0,SSW,3.5,-,N/A,,Clear,200,2012-12-09 17:53:00
11:53 AM,14.0,3.9,64,30.40,10.0,SW,5.8,-,N/A,,Partly Cloudy,220,2012-12-09 18:53:00
12:53 PM,15.1,5.0,64,30.37,10.0,SSW,9.2,-,N/A,,Clear,210,2012-12-09 19:53:00
1:53 PM,17.1,7.0,65,30.34,10.0,SW,10.4,-,N/A,,Mostly Cloudy,220,2012-12-09 20:53:00
2:53 PM,18.0,6.1,60,30.34,10.0,SW,11.5,-,N/A,,Mostly Cloudy,230,2012-12-09 21:53:00
3:53 PM,17.1,3.9,56,30.34,10.0,West,9.2,-,N/A,,Clear,260,2012-12-09 22:53:00
4:53 PM,7.0,-0.0,73,30.38,10.0,West,5.8,-,N/A,,Clear,270,2012-12-09 23:53:00
5:53 PM,8.1,-0.0,70,30.38,10.0,WSW,6.9,-,N/A,,Clear,250,2012-12-10 00:53:00
6:53 PM,7.0,-0.0,73,30.32,10.0,SW,10.4,-,N/A,,Clear,220,2012-12-10 01:53:00
7:53 PM,14.0,3.0,62,30.22,10.0,SW,13.8,-,N/A,,Clear,220,2012-12-10 02:53:00
8:53 PM,14.0,3.9,64,30.17,10.0,SW,17.3,24.2,N/A,,Clear,220,2012-12-10 03:53:00
9:53 PM,12.0,1.0,61,30.15,10.0,WSW,11.5,-,N/A,,Partly Cloudy,240,2012-12-10 04:53:00
10:53 PM,14.0,1.0,56,30.12,10.0,SW,15.0,-,N/A,,Mostly Cloudy,230,2012-12-10 05:53:00
11:53 PM,17.1,3.0,54,30.10,10.0,WSW,16.1,-,N/A,,Overcast,240,2012-12-10 06:53:00